Архив погоды на Мысе Терпения

Метеограмма Мыс Терпения
Четверг, 23 Мая
Время местн. Темп Ветер Видим Явления Облачность нижн/средн/верх Атм. давл. Влжн Точка росы ВНГО R Сост. почвы Tg s
Напр Скр Прв ур.ст ур.м изм
04:00 - +6.1° Ю,Ю-З 7 8 - - - 752 753 -0.1 91% +4.7° - - - - -
01:00 - +5° Ю,Ю-З 6 11 - - - 752 753 -0.7 91% +3.7° - - - - -
Среда, 22 Мая
Время местн. Темп Ветер Видим Явления Облачность нижн/средн/верх Атм. давл. Влжн Точка росы ВНГО R Сост. почвы Tg s
Напр Скр Прв ур.ст ур.м изм
22:00 +5.8° Ю 8 11 20 км - переменная облачность 753 753 +0.5 97% +5.3° более 2.5 км - - - -
19:00 +3.8° Ю,Ю-В 7 8 20 км - переменная облачность 752 753 +0.2 90% +2.3° более 2.5 км 0 - - -
16:00 +4.5° Ю-В 6 9 20 км - переменная облачность 752 753 -0.2 85% +2.2° более 2.5 км - - - -
13:00 +6.2° Ю 6 8 20 км - переменная облачность 752 753 +0.4 84% +3.7° - - - - -
10:00 +3.9° Ю 6 9 4 км дымка облачно с прояснениями 752 753 +0.5 97% +3.5° более 2.5 км - - - -
07:00 +3.1° Ю 6 8 1 км дымка облачно 751 752 +0.5 97% +2.7° 600 м 4 Влажная (без луж) - -
Вторник, 21 Мая
Время местн. Темп Ветер Видим Явления Облачность нижн/средн/верх Атм. давл. Влжн Точка росы ВНГО R Сост. почвы Tg s
Напр Скр Прв ур.ст ур.м изм
22:00 +4° Ю 7 11 10 км слабый ливневый дождь облачно 751 752 -0.4 97% +3.5° 600 м - - - -
19:00 +4° Ю,Ю-В 9 15 10 км дымка {морось} облачно 752 752 -1 97% +3.5° 1 км 0.1 - - -
16:00 +5.1° Ю 10 15 10 км дымка облачно 753 753 -0.7 95% +4.3° 1 км - - - -
13:00 +6° Ю 10 13 20 км - облачно 753 754 -0.2 86% +3.9° - - - - -
10:00 +5.2° Ю 9 13 10 км дымка облачно 754 754 -0.7 89% +3.5° более 2.5 км - - - -
07:00 +4.5° Ю 7 10 20 км - облачно 754 755 -0.7 93% +3.4° - 0 Влажная (без луж) - -
04:00 - +3.1° Ю 8 9 - - - 755 756 -0.8 94% +2.3° - - - - -
01:00 - +3.7° Ю 7 8 - - - 756 756 -1.3 92% +2.6° - - - - -
Понедельник, 20 Мая
Время местн. Темп Ветер Видим Явления Облачность нижн/средн/верх Атм. давл. Влжн Точка росы ВНГО R Сост. почвы Tg s
Напр Скр Прв ур.ст ур.м изм
22:00 +3.8° Ю 8 10 20 км - облачно 757 758 -0.2 91% +2.4° - - - - -
19:00 +4.2° Ю 7 9 20 км - облачно 757 758 0 89% +2.6° более 2.5 км 0 - - -
16:00 +5.6° Ю 7 8 20 км - облачно 757 758 -0.9 83% +2.9° - - - - -
13:00 +7.4° Ю 8 14 20 км - облачно 758 759 -0.2 81% +4.4° более 2.5 км - - - -
10:00 +7.2° Ю 8 11 20 км - облачно 758 759 -0.7 80% +4° более 2.5 км - - - -
07:00 +7.1° Ю 12 15 20 км - облачно с прояснениями 759 760 -0.7 84% +4.6° более 2.5 км 0 - - -
Воскресенье, 19 Мая
Время местн. Темп Ветер Видим Явления Облачность нижн/средн/верх Атм. давл. Влжн Точка росы ВНГО R Сост. почвы Tg s
Напр Скр Прв ур.ст ур.м изм
22:00 +7.8° Ю,Ю-З 6 12 20 км - облачно 760 760 +0.3 85% +5.4° 1 км - - - -
19:00 +7.4° Ю,Ю-З 9 11 20 км - облачно 759 759 +0.3 82% +4.6° - 0 - - -
16:00 +7.8° Ю,Ю-З 8 12 20 км - облачно 758 759 +0.1 81% +4.7° более 2.5 км - - - -
13:00 +6.9° Ю-З 9 10 20 км - облачно 758 759 +0.9 85% +4.5° более 2.5 км - - - -